Airfield :
LOGIN :

Register | Disclaimer

   EN    FR    IT 

 










Legend :    VFR   Marginal VFR   IFR   Intensive IFR   Very Intensive IFR
Visi :
Ceiling :
>= 8 km
>= 3000ft
5 to 8 km
1000 to 3000 ft
1500m to 5 km
500 to 1000 ft
800 to 1500m
200 to 500 ft
< 800m
< 200 ft
Symbols :   Thunderstorms  Fog  Heavy snow  Heavy precipitations  Wind > 20 kt
SIGMETs :     Misc.  Thunderstorms  Icing  Turbulence  Mountain Waves  Volcanic Ashes






- Airport Elevation : 22 ft
- IATA code : LDY


EGAE - Londonderry Eglington

CURRENT METAR :
  • 301020Z 24022KT 210V280 5000 -RA FEW005 BKN009 14/14 Q0986 RERA

EXPIRED METARs :
  • 300950Z 22025G35KT 5000 RA SCT011 OVC021 16/14 Q0984
  • 300920Z 22026KT 7000 -RA SCT014 BKN049 14/13 Q0985
  • 300850Z 19023G37KT 7000 RA SCT014 BKN040 14/13 Q0985
  • 300820Z 19026G38KT 7000 RA SCT014 SCT040 14/12 Q0986
  • 300750Z 19025G42KT 8000 RA SCT014 BKN047 13/12 Q0987

TAF TAF EGAE
Valid from the 30 at 09:00 until the 30 at 18:00 UTC


300802Z 3009/3018 19025G42KT 9999 SCT012 BKN030
TEMPO 3009/3011 6000 RA BKN012
PROB40
TEMPO 3009/3011 4000 +RA BKN009
BECMG 3010/3013 27018G30KT
TEMPO 3011/3018 6000 SHRA
BECMG 3016/3018 23014KT



MET'MAP, your aeronautical weather chart ! - Copyright ORBIFLY December 2007 - Disclaimer

ORBIFLY MET'MAP TEAM :

Programming & Development : Alexandra Zaïnal
Original concept : Baudouin d'Aumeries
Technical & hardware support : Manuel Goepfert
Assistance : Marc-Olivier Méhu




SOURCES & CREDITS :

   NOAA